Etusivu
METAR-TAF:

METAR-TAF

Lentoasemat :

Šeremetjevon kansainvälinen lentoasema

Moskova-Šeremetjevo, Venäjä

Leveyspiiri: 55-58N, Pituuspiiri: 037-25E, korkeus merenpinnasta: 190 m

Tämänhetkinen sää

Tämä raportti tehtiin 29 minuuttia sitten, kello 09.00 UTC
Tuuli 8 kn idästä
Lämpötila 21°C
Kosteus 53%
Ilmanpaine 1024 hPa
Näkyvyys 10 km tai enemmän
Hajanaisia pilviä 4800 ft:n korkeudessa

METAR: UUEE 170900Z 08004MPS 9999 SCT048 21/11 Q1024 R06C/CLRD62 R06R/CLRD62 NOSIG

Aika: 12:29 (09:29 UTC)

Sääennuste

Tämä raportti tehtiin 1 tunti ja 29 minuuttia sitten, kello 08.00 UTC
Ennuste voimassa 17. päivästä klo 09 UTC - 18. päivään klo 09 UTC
Tuuli 6 kn idästä/koillisesta
Näkyvyys 10 km tai enemmän
ei pilviä alle 1500 m:ssä eikä cumulonimbus-pilviä

TAF: UUEE 170800Z 1709/1809 06003MPS CAVOK TX23/1712Z TN12/1802Z

Säähavainnot ja -ennusteet yli 4000 lentoasemalta (METAR- ja TAF-raportit).

Käytössä olevat sääasemat on merkitty karttaan keltaisilla ja punaisilla pisteillä.

Aseta hiiri pisteen päälle nähdäksesi sääaseman nimen.

Klikkaa sitten nähdäksesi säähavainnot ja -ennusteet.

Kartan vaihtaminen: klikkaa mustalla rastilla varustettuja vihreitä pisteitä, niin voit zoomata sisään; viivalla varustettua vihreää pistettä, niin voit zoomata ulos tai vihreitä nuolia, niin pääset viereisille kartoille.


METAR-TAF: